createdAt,value
2022-08-26T00:00:28.373Z,21.71
2022-08-26T00:05:27.246Z,21.75
2022-08-26T00:10:27.209Z,21.75
2022-08-26T00:15:27.158Z,21.64
2022-08-26T00:20:27.117Z,21.46
2022-08-26T00:25:26.996Z,21.53
2022-08-26T00:30:26.997Z,22.27
2022-08-26T00:35:30.125Z,21.50
2022-08-26T00:40:27.220Z,20.96
2022-08-26T00:45:26.868Z,21.19
2022-08-26T00:50:26.714Z,21.19
2022-08-26T00:55:27.535Z,21.44
2022-08-26T01:00:27.597Z,21.23
2022-08-26T01:05:26.572Z,21.01
2022-08-26T01:10:26.496Z,21.04
2022-08-26T01:15:26.347Z,21.35
2022-08-26T01:20:26.320Z,21.09
2022-08-26T01:25:26.203Z,21.51
2022-08-26T01:30:26.195Z,21.36
2022-08-26T01:35:29.189Z,20.98
2022-08-26T01:40:26.059Z,20.83
2022-08-26T01:45:26.063Z,20.58
2022-08-26T01:50:27.685Z,20.99
2022-08-26T01:55:32.836Z,20.81
2022-08-26T02:00:27.218Z,20.84
2022-08-26T02:05:25.656Z,21.01
2022-08-26T02:10:25.730Z,20.74
2022-08-26T02:15:25.547Z,20.51
2022-08-26T02:20:26.532Z,20.58
2022-08-26T02:25:25.448Z,20.35
2022-08-26T02:30:25.358Z,20.34
2022-08-26T02:35:28.413Z,20.46
2022-08-26T02:40:25.388Z,20.25
2022-08-26T02:45:25.244Z,20.91
2022-08-26T02:50:25.128Z,20.98
2022-08-26T02:55:25.120Z,20.53
2022-08-26T03:00:24.967Z,20.34
2022-08-26T03:05:33.039Z,20.39
2022-08-26T03:10:25.979Z,20.34
2022-08-26T03:15:24.784Z,20.84
2022-08-26T03:20:24.655Z,20.91
2022-08-26T03:25:24.654Z,20.34
2022-08-26T03:30:24.521Z,20.58
2022-08-26T03:35:27.532Z,20.02
2022-08-26T03:40:24.488Z,19.80
2022-08-26T03:45:24.389Z,19.84
2022-08-26T03:50:24.466Z,19.80
2022-08-26T03:55:24.299Z,19.90
2022-08-26T04:00:24.139Z,19.86
2022-08-26T04:05:24.289Z,19.69
2022-08-26T04:10:26.444Z,19.90
2022-08-26T04:15:25.789Z,19.98
2022-08-26T04:20:23.916Z,20.39
2022-08-26T04:25:24.155Z,20.18
2022-08-26T04:30:23.726Z,20.71
2022-08-26T04:35:26.837Z,20.62
2022-08-26T04:40:23.638Z,20.03
2022-08-26T04:45:23.655Z,20.56
2022-08-26T04:50:23.560Z,20.31
2022-08-26T04:55:25.196Z,20.58
2022-08-26T05:00:24.406Z,20.90
2022-08-26T05:05:23.307Z,21.27
2022-08-26T05:10:23.284Z,21.44
2022-08-26T05:15:23.121Z,22.02
2022-08-26T05:20:26.174Z,23.01
2022-08-26T05:25:23.023Z,23.52
2022-08-26T05:30:23.067Z,23.79
2022-08-26T05:35:25.936Z,24.29
2022-08-26T05:40:22.960Z,24.64
2022-08-26T05:45:22.764Z,25.65
2022-08-26T05:50:22.887Z,25.91
2022-08-26T05:55:22.695Z,25.93
2022-08-26T06:00:22.761Z,26.11
2022-08-26T06:05:22.524Z,26.50
2022-08-26T06:10:32.067Z,27.21
2022-08-26T06:15:23.454Z,27.14
2022-08-26T06:20:22.431Z,27.57
2022-08-26T06:25:22.363Z,28.41
2022-08-26T06:30:22.183Z,28.44
2022-08-26T06:35:25.306Z,28.06
2022-08-26T06:40:22.318Z,28.14
2022-08-26T06:45:21.969Z,27.57
2022-08-26T06:50:21.986Z,26.87
2022-08-26T06:55:21.979Z,26.87
2022-08-26T07:00:22.846Z,27.05
2022-08-26T07:05:21.736Z,27.06
2022-08-26T07:10:22.475Z,27.10
2022-08-26T07:15:31.345Z,27.28
2022-08-26T07:20:21.576Z,27.09
2022-08-26T07:25:22.292Z,27.46
2022-08-26T07:30:21.662Z,27.54
2022-08-26T07:35:24.388Z,27.38
2022-08-26T07:40:21.506Z,26.84
2022-08-26T07:45:21.248Z,26.87
2022-08-26T07:50:21.190Z,26.73
2022-08-26T07:55:22.259Z,26.77
2022-08-26T08:00:21.004Z,27.02
2022-08-26T08:05:21.554Z,26.94
2022-08-26T08:10:21.043Z,27.32
2022-08-26T08:15:20.909Z,27.70
2022-08-26T08:20:20.890Z,27.92
2022-08-26T08:25:20.776Z,28.19
2022-08-26T08:30:22.701Z,28.47
2022-08-26T08:35:23.861Z,28.17
2022-08-26T08:40:20.642Z,27.88
2022-08-26T08:45:20.449Z,28.48
2022-08-26T08:50:20.885Z,28.96
2022-08-26T08:55:20.513Z,29.03
2022-08-26T09:00:20.480Z,28.93
2022-08-26T09:05:21.260Z,29.06
2022-08-26T09:10:20.473Z,29.19
2022-08-26T09:15:20.071Z,29.15
2022-08-26T09:20:20.196Z,29.37
2022-08-26T09:25:20.747Z,29.56
2022-08-26T09:30:20.009Z,29.81
2022-08-26T09:35:22.825Z,30.09
2022-08-26T09:40:20.387Z,29.75
2022-08-26T09:45:19.840Z,30.09
2022-08-26T09:50:19.833Z,30.34
2022-08-26T09:55:19.531Z,30.64
2022-08-26T10:00:19.517Z,30.74
2022-08-26T10:05:19.466Z,30.84
2022-08-26T10:10:19.391Z,30.86
2022-08-26T10:15:19.354Z,31.04
2022-08-26T10:20:23.379Z,31.12
2022-08-26T10:25:19.220Z,31.43
2022-08-26T10:30:19.199Z,31.30
2022-08-26T10:35:22.504Z,31.68
2022-08-26T10:40:19.088Z,31.84
2022-08-26T10:45:19.164Z,32.30
2022-08-26T10:50:18.906Z,32.47
2022-08-26T10:55:18.884Z,32.43
2022-08-26T11:01:40.765Z,32.47
2022-08-26T11:06:36.972Z,32.40
2022-08-26T11:12:37.645Z,31.77
2022-08-26T11:17:37.252Z,32.02
2022-08-26T11:22:47.542Z,32.66
2022-08-26T11:27:37.861Z,32.25
2022-08-26T11:32:37.318Z,32.15
2022-08-26T11:37:37.014Z,32.77
2022-08-26T11:42:37.693Z,32.67
2022-08-26T11:47:44.570Z,32.73
2022-08-26T11:52:37.171Z,32.52
2022-08-26T11:57:37.273Z,32.71
2022-08-26T12:02:39.732Z,32.44
2022-08-26T12:07:36.555Z,32.39
2022-08-26T12:12:37.586Z,32.80
2022-08-26T12:17:36.509Z,32.70
2022-08-26T12:22:36.496Z,32.71
2022-08-26T12:27:36.400Z,32.69
2022-08-26T12:32:36.287Z,32.93
2022-08-26T12:37:36.247Z,32.88
2022-08-26T12:42:36.279Z,33.14
2022-08-26T12:47:42.956Z,33.08
2022-08-26T12:52:37.234Z,33.31
2022-08-26T12:57:35.994Z,33.36
2022-08-26T13:02:39.110Z,33.30
2022-08-26T13:07:35.808Z,32.95
2022-08-26T13:12:35.956Z,33.61
2022-08-26T13:17:35.642Z,33.89
2022-08-26T13:22:35.662Z,33.73
2022-08-26T13:27:35.549Z,32.66
2022-08-26T13:32:35.489Z,32.55
2022-08-26T13:37:35.711Z,32.73
2022-08-26T13:42:35.456Z,32.67
2022-08-26T13:47:35.419Z,32.95
2022-08-26T13:52:35.351Z,33.14
2022-08-26T13:57:35.151Z,33.52
2022-08-26T14:02:38.193Z,33.41
2022-08-26T14:07:36.951Z,32.88
2022-08-26T14:12:35.059Z,32.29
2022-08-26T14:17:34.973Z,31.39
2022-08-26T14:22:40.413Z,31.49
2022-08-26T14:27:35.788Z,31.24
2022-08-26T14:32:34.739Z,30.37
2022-08-26T14:37:34.679Z,30.12
2022-08-26T14:42:34.520Z,26.64
2022-08-26T14:47:34.680Z,25.07
2022-08-26T14:52:42.569Z,24.39
2022-08-26T14:57:34.324Z,23.75
2022-08-26T15:02:37.666Z,22.39
2022-08-26T15:07:34.220Z,21.79
2022-08-26T15:12:34.220Z,21.69
2022-08-26T15:17:34.176Z,21.36
2022-08-26T15:22:34.748Z,21.36
2022-08-26T15:27:41.857Z,21.38
2022-08-26T15:32:41.376Z,21.53
2022-08-26T15:37:33.928Z,21.60
2022-08-26T15:42:33.760Z,21.30
2022-08-26T15:47:38.107Z,21.34
2022-08-26T15:52:34.654Z,21.59
2022-08-26T15:57:33.534Z,21.09
2022-08-26T16:02:36.528Z,21.01
2022-08-26T16:07:33.453Z,20.90
2022-08-26T16:12:33.441Z,21.05
2022-08-26T16:17:33.336Z,21.32
2022-08-26T16:22:33.375Z,21.67
2022-08-26T16:27:33.237Z,21.66
2022-08-26T16:32:33.233Z,21.72
2022-08-26T16:37:34.577Z,21.99
2022-08-26T16:42:32.982Z,21.50
2022-08-26T16:47:32.982Z,21.45
2022-08-26T16:52:32.861Z,21.66
2022-08-26T16:57:32.774Z,21.81
2022-08-26T17:02:35.776Z,21.67
2022-08-26T17:07:32.662Z,21.61
2022-08-26T17:12:32.622Z,22.10
2022-08-26T17:17:32.656Z,21.61
2022-08-26T17:22:34.627Z,22.02
2022-08-26T17:27:32.389Z,22.19
2022-08-26T17:32:32.514Z,21.92
2022-08-26T17:37:32.243Z,21.88
2022-08-26T17:42:32.282Z,21.60
2022-08-26T17:47:32.249Z,21.56
2022-08-26T17:52:32.117Z,21.64
2022-08-26T17:57:32.027Z,21.57
2022-08-26T18:02:36.109Z,21.50
2022-08-26T18:07:31.899Z,21.24
2022-08-26T18:12:32.925Z,21.83
2022-08-26T18:17:31.822Z,21.95
2022-08-26T18:22:31.769Z,22.14
2022-08-26T18:27:31.600Z,22.27
2022-08-26T18:32:31.588Z,21.99
2022-08-26T18:37:31.820Z,21.83
2022-08-26T18:42:31.422Z,22.04
2022-08-26T18:47:31.462Z,21.99
2022-08-26T18:52:31.274Z,22.22
2022-08-26T18:57:31.428Z,22.31
2022-08-26T19:02:34.410Z,22.14
2022-08-26T19:07:31.043Z,21.42
2022-08-26T19:12:31.002Z,21.59
2022-08-26T19:17:30.972Z,21.56
2022-08-26T19:22:30.899Z,21.98
2022-08-26T19:27:30.741Z,21.83
2022-08-26T19:32:30.745Z,22.06
2022-08-26T19:37:30.657Z,22.27
2022-08-26T19:42:30.589Z,22.23
2022-08-26T19:47:30.483Z,22.10
2022-08-26T19:52:38.272Z,22.49
2022-08-26T19:57:30.396Z,21.91
2022-08-26T20:02:33.401Z,21.83
2022-08-26T20:07:30.341Z,21.60
2022-08-26T20:12:30.215Z,21.95
2022-08-26T20:17:30.090Z,21.91
2022-08-26T20:22:30.354Z,22.13
2022-08-26T20:27:34.704Z,21.54
2022-08-26T20:32:35.067Z,21.92
2022-08-26T20:37:29.907Z,21.82
2022-08-26T20:42:30.024Z,21.38
2022-08-26T20:47:29.694Z,21.95
2022-08-26T20:52:30.076Z,21.95
2022-08-26T20:57:29.534Z,21.71
2022-08-26T21:02:33.330Z,21.78
2022-08-26T21:07:29.451Z,21.63
2022-08-26T21:12:29.450Z,21.48
2022-08-26T21:17:29.299Z,21.83
2022-08-26T21:22:29.268Z,21.92
2022-08-26T21:27:29.191Z,21.78
2022-08-26T21:32:29.131Z,21.75
2022-08-26T21:37:29.026Z,22.02
2022-08-26T21:42:28.994Z,22.04
2022-08-26T21:47:28.890Z,21.59
2022-08-26T21:52:28.956Z,21.53
2022-08-26T21:57:28.808Z,21.51
2022-08-26T22:02:31.803Z,21.69
2022-08-26T22:07:28.659Z,21.41
2022-08-26T22:12:28.679Z,21.61
2022-08-26T22:17:28.621Z,21.72
2022-08-26T22:22:28.705Z,21.79
2022-08-26T22:27:28.391Z,21.54
2022-08-26T22:32:28.348Z,21.39
2022-08-26T22:37:28.376Z,21.23
2022-08-26T22:42:28.318Z,21.64
2022-08-26T22:47:36.079Z,22.01
2022-08-26T22:52:35.519Z,22.20
2022-08-26T22:58:56.630Z,21.79
2022-08-26T23:03:56.397Z,21.53
2022-08-26T23:08:57.129Z,21.39
2022-08-26T23:13:56.337Z,21.48
2022-08-26T23:18:56.286Z,21.67
2022-08-26T23:24:04.041Z,22.04
2022-08-26T23:29:03.523Z,21.92
2022-08-26T23:34:03.848Z,22.06
2022-08-26T23:38:55.949Z,21.74
2022-08-26T23:43:56.009Z,21.90
2022-08-26T23:48:58.909Z,21.66
2022-08-26T23:53:55.753Z,21.48
2022-08-26T23:59:03.456Z,22.06
